Time;durP1;ratioP1;P1;durP2;ratioP2;P2;SDS_P1;SDS_P2;PMS_P1;PMS_P2;Temp;Humidity;BMP_temperature;BMP_pressure;BME280_temperature;BME280_humidity;BME280_pressure;Samples;Min_cycle;Max_cycle;Signal;HPM_P1;HPM_P2
2024/01/09 00:02:20;;;;;;;7.27;3.80;;;;;;;-5.90;100.00;149872.44;4937476;28;20806;-88
2024/01/09 00:04:46;;;;;;;7.93;6.63;;;;;;;-5.91;100.00;149869.91;4955567;28;20823;-87
2024/01/09 00:07:13;;;;;;;11.63;7.50;;;;;;;-5.87;100.00;149880.09;4948985;28;20456;-87
2024/01/09 00:09:39;;;;;;;11.07;6.70;;;;;;;-5.91;100.00;149869.91;4945390;28;20855;-88
2024/01/09 00:12:07;;;;;;;9.27;6.50;;;;;;;-5.93;100.00;149864.81;4974880;28;20449;-87
2024/01/09 00:14:34;;;;;;;8.50;6.03;;;;;;;-5.92;100.00;149867.34;4964393;28;20460;-87
2024/01/09 00:17:01;;;;;;;13.43;7.80;;;;;;;-5.93;100.00;149864.81;4931631;28;20542;-88
2024/01/09 00:19:29;;;;;;;9.73;7.10;;;;;;;-5.95;100.00;149859.69;4963146;28;20546;-88
2024/01/09 00:21:56;;;;;;;9.27;7.03;;;;;;;-5.96;100.00;149857.16;4973018;28;20558;-89
2024/01/09 00:24:23;;;;;;;11.77;7.50;;;;;;;-6.01;100.00;149845.66;4972349;28;20484;-88
2024/01/09 00:26:49;;;;;;;11.63;7.73;;;;;;;-6.02;100.00;149843.13;4956589;28;20450;-88
2024/01/09 00:29:16;;;;;;;10.03;6.77;;;;;;;-6.03;100.00;149839.25;4953629;28;20434;-87
2024/01/09 00:31:44;;;;;;;10.33;6.83;;;;;;;-6.05;100.00;149834.19;4955210;28;20429;-88
2024/01/09 00:34:10;;;;;;;9.60;6.30;;;;;;;-6.04;100.00;149836.75;4963386;28;20923;-88
2024/01/09 00:36:44;;;;;;;13.67;7.50;;;;;;;-6.06;100.00;149832.88;4957476;28;21011;-88
2024/01/09 00:39:11;;;;;;;8.80;6.87;;;;;;;-6.07;100.00;149830.38;4948436;28;20822;-88
2024/01/09 00:41:37;;;;;;;11.77;6.60;;;;;;;-6.04;100.00;149836.75;4960286;28;20490;-87
2024/01/09 00:44:05;;;;;;;12.17;6.97;;;;;;;-6.05;100.00;149835.47;4941171;28;21048;-87
2024/01/09 00:46:31;;;;;;;8.17;6.10;;;;;;;-6.03;100.00;149839.25;4957210;28;20473;-88
2024/01/09 00:48:58;;;;;;;9.40;6.60;;;;;;;-5.99;100.00;149849.50;4948487;28;20448;-88
2024/01/09 00:51:25;;;;;;;9.57;6.60;;;;;;;-5.99;100.00;149849.50;4944743;28;20863;-88
2024/01/09 00:53:54;;;;;;;6.93;5.37;;;;;;;-6.00;100.00;149846.94;4955520;28;20521;-88
2024/01/09 00:56:22;;;;;;;7.80;4.60;;;;;;;-5.97;100.00;149855.88;4966437;28;20548;-87
2024/01/09 00:58:48;;;;;;;10.30;6.73;;;;;;;-5.97;100.00;149854.59;4952461;28;20811;-88
2024/01/09 01:01:15;;;;;;;13.60;7.57;;;;;;;-5.95;100.00;149860.97;4958907;28;20425;-87
2024/01/09 01:03:42;;;;;;;8.40;5.00;;;;;;;-5.96;100.00;149857.16;4938494;28;20510;-86
2024/01/09 01:06:09;;;;;;;10.27;6.00;;;;;;;-5.99;100.00;149850.78;4954200;28;20463;-87
2024/01/09 01:08:37;;;;;;;11.03;7.70;;;;;;;-6.00;100.00;149848.22;4954281;28;21004;-88
2024/01/09 01:11:06;;;;;;;8.23;6.10;;;;;;;-6.00;100.00;149848.22;4954277;28;20763;-88
2024/01/09 01:13:33;;;;;;;15.57;7.93;;;;;;;-5.99;100.00;149849.50;4954270;28;20512;-87
2024/01/09 01:15:59;;;;;;;6.17;4.97;;;;;;;-5.99;100.00;149850.78;4954978;28;20437;-87
2024/01/09 01:18:26;;;;;;;7.57;5.60;;;;;;;-5.99;100.00;149849.50;4972827;28;20490;-88
2024/01/09 01:20:53;;;;;;;8.60;6.03;;;;;;;-6.00;100.00;149846.94;4943572;28;20948;-87
2024/01/09 01:23:19;;;;;;;10.10;7.10;;;;;;;-6.02;100.00;149843.13;4970205;28;20466;-88
2024/01/09 01:25:46;;;;;;;10.80;7.17;;;;;;;-6.01;100.00;149844.41;4941133;28;20550;-86
2024/01/09 01:28:14;;;;;;;6.10;4.97;;;;;;;-6.02;100.00;149843.13;4945857;28;20451;-88
2024/01/09 01:30:41;;;;;;;8.50;6.77;;;;;;;-6.03;100.00;149840.56;4968937;28;20837;-87
2024/01/09 01:33:07;;;;;;;13.07;8.37;;;;;;;-6.05;100.00;149834.19;4949195;28;20454;-87
2024/01/09 01:35:34;;;;;;;11.43;8.43;;;;;;;-6.05;100.00;149834.19;4948563;28;20657;-88
2024/01/09 01:38:01;;;;;;;12.23;6.93;;;;;;;-6.07;100.00;149829.09;4965268;28;20781;-88
2024/01/09 01:40:27;;;;;;;10.60;7.90;;;;;;;-6.07;100.00;149830.38;4950628;28;20458;-89
2024/01/09 01:42:56;;;;;;;8.00;6.43;;;;;;;-6.07;100.00;149829.09;4943671;28;20493;-88
2024/01/09 01:45:25;;;;;;;12.83;8.13;;;;;;;-6.06;100.00;149831.66;4962502;28;20457;-88
2024/01/09 01:47:52;;;;;;;12.03;7.30;;;;;;;-6.09;100.00;149825.28;4935658;28;20466;-88
2024/01/09 01:50:18;;;;;;;11.30;6.80;;;;;;;-6.07;100.00;149829.09;4952660;28;20435;-89
2024/01/09 01:52:46;;;;;;;10.40;6.40;;;;;;;-6.07;100.00;149829.09;4952628;28;20447;-88
2024/01/09 01:55:13;;;;;;;9.40;6.23;;;;;;;-6.07;100.00;149829.09;4957977;28;20417;-87
2024/01/09 01:57:41;;;;;;;11.87;7.93;;;;;;;-6.09;100.00;149825.28;4957101;28;20437;-88
2024/01/09 02:00:09;;;;;;;9.43;6.40;;;;;;;-6.11;100.00;149820.13;4962066;28;20546;-87
2024/01/09 02:02:41;;;;;;;10.03;6.33;;;;;;;-6.12;100.00;149817.63;4951971;28;20470;-88
2024/01/09 02:05:08;;;;;;;10.67;6.90;;;;;;;-6.12;100.00;149817.63;4949591;28;20474;-88
2024/01/09 02:07:35;;;;;;;10.30;7.10;;;;;;;-6.11;100.00;149818.84;4976284;28;20916;-88
2024/01/09 02:10:02;;;;;;;8.33;6.47;;;;;;;-6.15;100.00;149809.94;4966871;28;20457;-88
2024/01/09 02:12:29;;;;;;;11.87;7.63;;;;;;;-6.19;100.00;149799.72;4953613;28;20429;-89
2024/01/09 02:14:56;;;;;;;10.17;7.43;;;;;;;-6.22;100.00;149792.06;4968503;28;20429;-88
2024/01/09 02:17:22;;;;;;;13.10;8.40;;;;;;;-6.22;100.00;149792.06;4952911;28;20429;-88
2024/01/09 02:19:50;;;;;;;8.30;6.13;;;;;;;-6.25;100.00;149785.69;4950102;28;20539;-88
2024/01/09 02:22:17;;;;;;;12.07;8.20;;;;;;;-6.25;100.00;149785.69;4943122;28;20572;-88
2024/01/09 02:24:44;;;;;;;11.60;7.33;;;;;;;-6.28;100.00;149776.78;4961953;28;20461;-88
2024/01/09 02:27:15;;;;;;;9.07;6.80;;;;;;;-6.26;100.00;149783.16;4956067;28;20552;-88
2024/01/09 02:29:49;;;;;;;14.87;8.60;;;;;;;-6.29;100.00;149775.50;4951343;29;20410;-88
2024/01/09 02:32:16;;;;;;;12.17;7.10;;;;;;;-6.29;100.00;149774.22;4952683;28;20440;-87
2024/01/09 02:34:44;;;;;;;12.07;8.57;;;;;;;-6.35;100.00;149758.88;4981705;28;20511;-88
2024/01/09 02:37:11;;;;;;;9.90;7.40;;;;;;;-6.36;100.00;149757.66;4955028;28;20568;-88
2024/01/09 02:39:38;;;;;;;10.83;6.87;;;;;;;-6.39;100.00;149750.00;4964736;28;21287;-88
2024/01/09 02:42:05;;;;;;;11.73;7.60;;;;;;;-6.41;100.00;149744.91;4949173;28;20479;-87
2024/01/09 02:44:32;;;;;;;8.80;5.93;;;;;;;-6.43;100.00;149738.47;4971100;28;20515;-87
2024/01/09 02:47:00;;;;;;;9.80;7.37;;;;;;;-6.42;100.00;149742.34;4955534;28;20460;-87
2024/01/09 02:49:26;;;;;;;11.57;6.70;;;;;;;-6.38;100.00;149752.50;4962883;28;20440;-87
2024/01/09 02:51:53;;;;;;;10.40;6.30;;;;;;;-6.37;100.00;149755.09;4963716;28;20446;-87
2024/01/09 02:54:20;;;;;;;10.10;6.93;;;;;;;-6.35;100.00;149760.16;4969775;28;20553;-90
2024/01/09 02:56:47;;;;;;;12.10;7.00;;;;;;;-6.35;100.00;149758.88;4972873;28;20458;-89
2024/01/09 02:59:13;;;;;;;9.50;6.60;;;;;;;-6.35;100.00;149758.88;4940901;28;20510;-89
2024/01/09 03:01:40;;;;;;;10.57;7.97;;;;;;;-6.39;100.00;149750.00;4975771;28;20462;-89
2024/01/09 03:04:08;;;;;;;9.00;7.13;;;;;;;-6.39;100.00;149750.00;4971092;28;20817;-88
2024/01/09 03:06:35;;;;;;;10.93;7.00;;;;;;;-6.39;100.00;149750.00;4956212;28;20458;-88
2024/01/09 03:09:02;;;;;;;7.70;5.20;;;;;;;-6.39;100.00;149750.00;4954700;28;20455;-89
2024/01/09 03:11:29;;;;;;;12.20;7.00;;;;;;;-6.39;100.00;149750.00;4940263;28;20920;-87
2024/01/09 03:13:56;;;;;;;11.63;6.93;;;;;;;-6.38;100.00;149752.50;4951735;28;20819;-88
2024/01/09 03:16:22;;;;;;;8.60;5.80;;;;;;;-6.40;100.00;149747.41;4954462;28;20504;-88
2024/01/09 03:18:49;;;;;;;8.30;6.00;;;;;;;-6.40;100.00;149747.41;4950569;28;20461;-89
2024/01/09 03:21:17;;;;;;;11.80;7.83;;;;;;;-6.39;100.00;149748.72;4959314;28;20460;-88
2024/01/09 03:23:44;;;;;;;10.87;7.07;;;;;;;-6.40;100.00;149747.41;4959521;28;20454;-88
2024/01/09 03:26:11;;;;;;;10.23;6.20;;;;;;;-6.42;100.00;149742.34;4956635;28;20453;-89
2024/01/09 03:28:38;;;;;;;11.30;8.30;;;;;;;-6.39;100.00;149750.00;4948222;28;20473;-87
2024/01/09 03:31:04;;;;;;;9.50;6.27;;;;;;;-6.41;100.00;149744.91;4981108;28;20494;-88
2024/01/09 03:33:31;;;;;;;10.37;6.70;;;;;;;-6.42;100.00;149741.03;4975809;28;20427;-88
2024/01/09 03:35:58;;;;;;;8.80;6.13;;;;;;;-6.41;100.00;149744.91;4953215;28;20450;-88
2024/01/09 03:38:26;;;;;;;9.23;6.10;;;;;;;-6.41;100.00;149743.63;4974256;28;20433;-87
2024/01/09 03:40:53;;;;;;;10.90;4.87;;;;;;;-6.42;100.00;149742.34;4971133;28;20545;-88
2024/01/09 03:43:20;;;;;;;11.87;4.93;;;;;;;-6.43;100.00;149739.75;4946952;29;20459;-87
2024/01/09 03:45:46;;;;;;;11.50;6.80;;;;;;;-6.45;100.00;149733.38;4949197;28;20483;-87
2024/01/09 03:48:13;;;;;;;16.10;7.00;;;;;;;-6.46;100.00;149732.09;4975631;28;20465;-88
2024/01/09 03:50:40;;;;;;;8.50;5.43;;;;;;;-6.46;100.00;149732.09;4954713;28;20681;-88
2024/01/09 03:53:06;;;;;;;8.20;6.13;;;;;;;-6.47;100.00;149729.59;4970225;28;20490;-89
2024/01/09 03:55:34;;;;;;;9.57;5.77;;;;;;;-6.46;100.00;149730.88;4956998;28;20490;-89
2024/01/09 03:58:01;;;;;;;11.17;6.87;;;;;;;-6.48;100.00;149727.00;4955264;28;20537;-89
2024/01/09 04:00:28;;;;;;;12.30;7.00;;;;;;;-6.48;100.00;149725.72;4952945;28;20482;-89
2024/01/09 04:02:54;;;;;;;11.80;6.63;;;;;;;-6.50;100.00;149721.91;4963160;28;20429;-89
2024/01/09 04:05:21;;;;;;;13.30;7.40;;;;;;;-6.50;100.00;149720.63;4956193;28;20561;-89
2024/01/09 04:07:48;;;;;;;12.60;7.60;;;;;;;-6.50;100.00;149721.91;4967597;28;20450;-88
2024/01/09 04:10:14;;;;;;;16.10;6.67;;;;;;;-6.49;100.00;149724.50;4957254;28;20462;-89
2024/01/09 04:12:42;;;;;;;14.00;8.17;;;;;;;-6.48;100.00;149725.72;4972475;28;20454;-89
2024/01/09 04:15:09;;;;;;;9.83;6.67;;;;;;;-6.45;100.00;149733.38;4977016;28;20485;-89
2024/01/09 04:17:36;;;;;;;7.67;3.90;;;;;;;-6.47;100.00;149728.28;4971197;28;20490;-88
2024/01/09 04:20:04;;;;;;;14.07;6.90;;;;;;;-6.46;100.00;149732.09;4954742;28;20421;-89
2024/01/09 04:22:31;;;;;;;5.70;4.23;;;;;;;-6.47;100.00;149729.59;4987405;28;20436;-89
2024/01/09 04:24:57;;;;;;;11.20;6.80;;;;;;;-6.47;100.00;149728.28;4958299;28;20478;-89
2024/01/09 04:27:24;;;;;;;8.87;5.03;;;;;;;-6.49;100.00;149723.22;4969262;28;20474;-89
2024/01/09 04:29:52;;;;;;;7.30;5.17;;;;;;;-6.48;100.00;149725.72;4965869;28;20485;-89
2024/01/09 04:32:19;;;;;;;8.33;6.17;;;;;;;-6.51;100.00;149718.13;4950875;28;20454;-89
2024/01/09 04:34:46;;;;;;;10.07;5.47;;;;;;;-6.53;100.00;149714.25;4954159;28;20452;-89
2024/01/09 04:37:12;;;;;;;9.03;7.20;;;;;;;-6.54;100.00;149711.69;4951910;28;20470;-89
2024/01/09 04:39:39;;;;;;;9.03;5.50;;;;;;;-6.56;100.00;149706.59;4942179;28;20531;-89
2024/01/09 04:42:06;;;;;;;8.57;7.70;;;;;;;-6.56;100.00;149706.59;4962947;28;20581;-89
2024/01/09 04:44:33;;;;;;;8.50;7.13;;;;;;;-6.57;100.00;149704.09;4937188;28;20460;-89
2024/01/09 04:47:01;;;;;;;13.10;6.00;;;;;;;-6.60;100.00;149696.41;4953947;28;20553;-89
2024/01/09 04:49:27;;;;;;;11.20;6.00;;;;;;;-6.59;100.00;149698.94;4971749;28;20442;-89
2024/01/09 04:51:54;;;;;;;11.80;6.97;;;;;;;-6.62;100.00;149691.34;4972164;28;20462;-89
2024/01/09 04:54:21;;;;;;;11.40;6.43;;;;;;;-6.64;100.00;149686.19;4970593;28;20462;-89
2024/01/09 04:56:47;;;;;;;10.00;6.40;;;;;;;-6.65;100.00;149683.69;4956743;28;20449;-89
2024/01/09 04:59:14;;;;;;;10.47;4.97;;;;;;;-6.65;100.00;149683.69;4951195;29;20980;-89
2024/01/09 05:01:40;;;;;;;13.40;6.07;;;;;;;-6.66;100.00;149681.09;4954428;28;20457;-89
2024/01/09 05:04:08;;;;;;;7.00;4.93;;;;;;;-6.67;100.00;149678.53;4956041;28;20442;-89
2024/01/09 05:06:35;;;;;;;8.83;6.60;;;;;;;-6.70;100.00;149670.94;4938635;28;20888;-89
2024/01/09 05:09:02;;;;;;;10.83;7.03;;;;;;;-6.70;100.00;149670.94;4947109;28;20446;-88
2024/01/09 05:11:29;;;;;;;11.33;6.30;;;;;;;-6.69;100.00;149672.16;4952219;28;20965;-89
2024/01/09 05:13:55;;;;;;;8.20;5.07;;;;;;;-6.69;100.00;149673.44;4939900;28;20501;-89
2024/01/09 05:16:24;;;;;;;8.80;6.50;;;;;;;-6.71;100.00;149668.34;4954258;28;20869;-88
2024/01/09 05:18:51;;;;;;;13.60;6.60;;;;;;;-6.71;100.00;149668.34;4951537;28;20452;-88
2024/01/09 05:21:19;;;;;;;5.70;4.80;;;;;;;-6.73;100.00;149661.97;4970109;28;20550;-88
2024/01/09 05:23:45;;;;;;;10.63;5.17;;;;;;;-6.76;100.00;149655.59;4962529;28;20457;-88
2024/01/09 05:26:12;;;;;;;7.37;5.07;;;;;;;-6.76;100.00;149655.59;4953474;28;20483;-89
2024/01/09 05:28:39;;;;;;;10.73;6.87;;;;;;;-6.76;100.00;149654.31;4938898;28;20518;-89
2024/01/09 05:31:05;;;;;;;8.13;6.27;;;;;;;-6.78;100.00;149650.53;4955709;28;20553;-88
2024/01/09 05:33:32;;;;;;;9.53;6.80;;;;;;;-6.78;100.00;149651.75;4964593;28;20520;-89
2024/01/09 05:35:59;;;;;;;10.23;6.00;;;;;;;-6.78;100.00;149651.75;4963952;28;20532;-89
2024/01/09 05:38:27;;;;;;;8.63;5.70;;;;;;;-6.76;100.00;149655.59;4941832;28;20451;-88
2024/01/09 05:40:54;;;;;;;9.53;5.43;;;;;;;-6.76;100.00;149655.59;4954739;28;20502;-90
2024/01/09 05:43:21;;;;;;;13.00;7.07;;;;;;;-6.77;100.00;149653.03;4963937;28;20491;-90
2024/01/09 05:45:48;;;;;;;10.33;7.10;;;;;;;-6.75;100.00;149656.91;4944857;28;20541;-90
2024/01/09 05:48:14;;;;;;;9.50;6.80;;;;;;;-6.77;100.00;149653.03;4950809;28;20477;-90
2024/01/09 05:50:41;;;;;;;10.03;6.40;;;;;;;-6.77;100.00;149653.03;4953326;28;20546;-89
2024/01/09 05:53:08;;;;;;;7.90;5.13;;;;;;;-6.79;100.00;149647.94;4952599;28;20525;-89
2024/01/09 05:55:36;;;;;;;7.70;5.90;;;;;;;-6.78;100.00;149650.53;4946445;28;20439;-89
2024/01/09 05:58:03;;;;;;;9.17;5.93;;;;;;;-6.79;100.00;149647.94;4943387;28;20528;-89
2024/01/09 06:00:30;;;;;;;9.97;6.40;;;;;;;-6.79;100.00;149647.94;4946394;28;20461;-90
2024/01/09 06:02:57;;;;;;;7.00;5.90;;;;;;;-6.81;100.00;149642.88;4942206;28;20561;-88
2024/01/09 06:05:24;;;;;;;15.50;6.50;;;;;;;-6.82;100.00;149641.59;4937070;28;20474;-89
2024/01/09 06:07:50;;;;;;;12.30;8.10;;;;;;;-6.82;100.00;149641.59;4946456;28;20441;-88
2024/01/09 06:10:17;;;;;;;7.20;5.77;;;;;;;-6.81;100.00;149642.88;4935680;28;20457;-88
2024/01/09 06:12:45;;;;;;;13.00;7.20;;;;;;;-6.82;100.00;149640.28;4961850;28;20458;-88
2024/01/09 06:15:12;;;;;;;11.73;7.53;;;;;;;-6.82;100.00;149640.28;4941047;28;20449;-88
2024/01/09 06:17:39;;;;;;;11.43;7.50;;;;;;;-6.83;100.00;149639.00;4956411;28;20548;-88
2024/01/09 06:20:06;;;;;;;9.90;5.63;;;;;;;-6.80;100.00;149645.38;4951300;28;20453;-88
2024/01/09 06:22:33;;;;;;;10.67;6.37;;;;;;;-6.81;100.00;149642.88;4941017;28;20465;-88
2024/01/09 06:25:00;;;;;;;9.03;5.60;;;;;;;-6.80;100.00;149645.38;4939629;28;20466;-88
2024/01/09 06:27:30;;;;;;;12.70;7.13;;;;;;;-6.81;100.00;149642.88;4954668;28;20556;-88
2024/01/09 06:29:58;;;;;;;12.10;6.70;;;;;;;-6.81;100.00;149642.88;4956769;28;20870;-88
2024/01/09 06:32:40;;;;;;;7.30;4.63;;;;;;;-6.83;100.00;149639.00;4968646;28;20528;-88
2024/01/09 06:35:08;;;;;;;14.23;7.80;;;;;;;-6.82;100.00;149640.28;4942813;28;20503;-88
2024/01/09 06:37:34;;;;;;;10.10;5.70;;;;;;;-6.81;100.00;149642.88;4949913;28;20575;-88
2024/01/09 06:40:01;;;;;;;9.87;7.60;;;;;;;-6.80;100.00;149646.66;4963985;28;20470;-89
2024/01/09 06:42:28;;;;;;;8.70;6.00;;;;;;;-6.81;100.00;149642.88;4957035;28;20491;-89
2024/01/09 06:44:55;;;;;;;8.23;5.70;;;;;;;-6.82;100.00;149640.28;4936498;28;20460;-89
2024/01/09 06:47:23;;;;;;;8.53;5.50;;;;;;;-6.82;100.00;149640.28;4951651;28;20506;-89
2024/01/09 06:49:49;;;;;;;6.63;4.93;;;;;;;-6.80;100.00;149645.38;4953059;28;20466;-89
2024/01/09 06:52:16;;;;;;;9.43;5.97;;;;;;;-6.81;100.00;149644.16;4948898;28;20430;-89
2024/01/09 06:54:43;;;;;;;10.47;7.20;;;;;;;-6.82;100.00;149641.59;4966935;28;20497;-89
2024/01/09 06:57:09;;;;;;;12.23;6.80;;;;;;;-6.83;100.00;149639.00;4955908;28;20469;-88
2024/01/09 06:59:37;;;;;;;10.30;6.53;;;;;;;-6.80;100.00;149645.38;4965007;28;21005;-88
2024/01/09 07:02:03;;;;;;;8.50;6.90;;;;;;;-6.82;100.00;149640.28;4955594;28;20462;-88
2024/01/09 07:04:32;;;;;;;11.43;6.53;;;;;;;-6.83;100.00;149637.78;4955625;28;20868;-89
2024/01/09 07:06:58;;;;;;;9.80;6.90;;;;;;;-6.83;100.00;149637.78;4971766;28;20892;-89
2024/01/09 07:09:25;;;;;;;8.87;6.83;;;;;;;-6.82;100.00;149640.28;4956425;28;20462;-88
2024/01/09 07:11:52;;;;;;;13.43;6.20;;;;;;;-6.82;100.00;149640.28;4944862;28;20828;-88
2024/01/09 07:14:20;;;;;;;9.50;6.50;;;;;;;-6.82;100.00;149640.28;4936616;28;20422;-88
2024/01/09 07:16:47;;;;;;;11.70;7.30;;;;;;;-6.81;100.00;149642.88;4950191;28;20453;-82
2024/01/09 07:19:14;;;;;;;8.40;6.97;;;;;;;-6.78;100.00;149650.53;4949504;28;20494;-83
2024/01/09 07:21:42;;;;;;;11.43;5.73;;;;;;;-6.79;100.00;149647.94;4955136;28;20469;-83
2024/01/09 07:24:08;;;;;;;8.50;7.20;;;;;;;-6.79;100.00;149647.94;4955384;28;20428;-82
2024/01/09 07:26:39;;;;;;;13.43;7.13;;;;;;;-6.79;100.00;149647.94;4949457;28;20505;-82
2024/01/09 07:29:06;;;;;;;11.60;7.40;;;;;;;-6.80;100.00;149646.66;4964281;28;20811;-82
2024/01/09 07:31:32;;;;;;;11.93;7.00;;;;;;;-6.76;100.00;149655.59;4966865;28;20450;-83
2024/01/09 07:34:00;;;;;;;12.67;7.33;;;;;;;-6.74;100.00;149660.69;4968475;28;20460;-83
2024/01/09 07:36:27;;;;;;;11.57;7.13;;;;;;;-6.73;100.00;149661.97;4964809;28;20529;-83
2024/01/09 07:38:55;;;;;;;9.70;6.30;;;;;;;-6.70;100.00;149669.63;4970478;28;20443;-83
2024/01/09 07:41:21;;;;;;;9.00;6.33;;;;;;;-6.68;100.00;149674.72;4966602;28;20842;-83
2024/01/09 07:43:48;;;;;;;6.60;5.90;;;;;;;-6.64;99.95;149686.19;4941598;28;20462;-83
2024/01/09 07:46:14;;;;;;;9.83;6.20;;;;;;;-6.62;98.79;149691.34;4958811;28;20452;-82
2024/01/09 07:48:41;;;;;;;14.20;6.63;;;;;;;-6.61;98.99;149693.84;4950668;28;20469;-83
2024/01/09 07:51:09;;;;;;;10.20;7.70;;;;;;;-6.60;100.00;149696.41;4941771;28;20469;-83
2024/01/09 07:53:36;;;;;;;12.20;6.57;;;;;;;-6.56;100.00;149706.59;4965965;28;21276;-83
2024/01/09 07:56:04;;;;;;;8.17;4.70;;;;;;;-6.53;99.46;149714.25;4964134;28;21094;-83
2024/01/09 07:58:30;;;;;;;9.43;7.57;;;;;;;-6.55;99.03;149709.16;4986477;28;20469;-83
2024/01/09 08:00:57;;;;;;;11.90;7.40;;;;;;;-6.55;98.85;149709.16;4970328;28;20462;-83
2024/01/09 08:03:23;;;;;;;9.47;6.73;;;;;;;-6.55;98.26;149709.16;4968953;28;20489;-83
2024/01/09 08:05:50;;;;;;;8.27;6.60;;;;;;;-6.56;98.81;149706.59;4944948;28;20541;-83
2024/01/09 08:08:17;;;;;;;8.00;6.13;;;;;;;-6.55;99.08;149709.16;4970913;28;20433;-83
2024/01/09 08:10:43;;;;;;;12.90;7.53;;;;;;;-6.55;99.08;149709.16;4974545;28;20458;-83
2024/01/09 08:13:11;;;;;;;10.63;6.70;;;;;;;-6.55;99.18;149709.16;4953814;28;20533;-83
2024/01/09 08:15:38;;;;;;;10.17;6.60;;;;;;;-6.54;99.25;149710.44;4948631;28;20433;-83
2024/01/09 08:18:05;;;;;;;7.10;5.17;;;;;;;-6.54;99.40;149711.69;4969116;28;20463;-83
2024/01/09 08:20:32;;;;;;;11.90;6.70;;;;;;;-6.55;99.12;149709.16;4966300;28;20446;-83
2024/01/09 08:22:58;;;;;;;11.87;7.13;;;;;;;-6.55;98.91;149709.16;4958112;28;20462;-83
2024/01/09 08:25:25;;;;;;;8.40;6.17;;;;;;;-6.53;99.32;149712.97;4943630;28;20458;-83
2024/01/09 08:27:52;;;;;;;13.50;7.80;;;;;;;-6.50;99.72;149720.63;4966381;28;20484;-83
2024/01/09 08:30:20;;;;;;;16.73;8.47;;;;;;;-6.44;99.29;149737.25;4964708;28;20433;-83
2024/01/09 08:32:46;;;;;;;8.37;6.73;;;;;;;-6.43;99.00;149739.75;4942018;28;20924;-83
2024/01/09 08:35:13;;;;;;;6.77;4.67;;;;;;;-6.42;98.33;149742.34;4967589;28;20450;-83
2024/01/09 08:37:39;;;;;;;12.90;6.50;;;;;;;-6.39;98.54;149750.00;4968249;28;20481;-83
2024/01/09 08:40:08;;;;;;;9.50;7.40;;;;;;;-6.34;98.94;149762.75;4948365;28;20477;-83
2024/01/09 08:42:34;;;;;;;8.77;6.30;;;;;;;-6.31;98.52;149770.41;4966198;28;20490;-83
2024/01/09 08:45:01;;;;;;;12.03;7.10;;;;;;;-6.24;98.06;149788.25;4956994;28;20471;-83
2024/01/09 08:47:29;;;;;;;11.97;6.43;;;;;;;-6.18;97.76;149802.28;4966247;28;20482;-83
2024/01/09 08:49:55;;;;;;;12.83;7.40;;;;;;;-6.12;96.99;149817.63;4958478;28;20558;-83
2024/01/09 08:52:25;;;;;;;11.23;6.30;;;;;;;-6.04;97.85;149836.75;4958210;28;20990;-83
2024/01/09 08:54:52;;;;;;;9.80;5.03;;;;;;;-5.98;96.81;149853.31;4966750;28;20490;-82
2024/01/09 08:57:19;;;;;;;12.50;7.77;;;;;;;-5.92;96.75;149867.34;4957396;28;20453;-83
2024/01/09 08:59:46;;;;;;;8.60;6.87;;;;;;;-5.89;95.86;149876.28;4966841;28;20463;-83
2024/01/09 09:02:12;;;;;;;10.87;7.20;;;;;;;-5.87;95.70;149880.09;4965628;28;20454;-83
2024/01/09 09:04:40;;;;;;;11.83;6.30;;;;;;;-5.87;95.06;149880.09;4966084;28;20455;-83
2024/01/09 09:07:07;;;;;;;11.60;6.63;;;;;;;-5.84;95.26;149889.00;4963540;28;20453;-83
2024/01/09 09:09:35;;;;;;;12.57;6.87;;;;;;;-5.78;95.44;149904.34;4964190;28;20453;-83
2024/01/09 09:12:02;;;;;;;12.97;7.80;;;;;;;-5.72;94.73;149919.63;4963493;28;20440;-83
2024/01/09 09:14:29;;;;;;;10.07;6.30;;;;;;;-5.72;94.60;149918.38;4964733;28;20808;-83
2024/01/09 09:16:55;;;;;;;13.20;8.13;;;;;;;-5.68;93.96;149928.56;4939246;28;20455;-83
2024/01/09 09:19:23;;;;;;;13.97;8.37;;;;;;;-5.65;94.64;149936.22;4962810;28;20469;-83
2024/01/09 09:21:50;;;;;;;14.57;6.63;;;;;;;-5.55;94.68;149961.75;4962646;28;20542;-83
2024/01/09 09:24:17;;;;;;;9.97;6.40;;;;;;;-5.56;93.03;149960.47;4965332;28;20444;-83
2024/01/09 09:26:44;;;;;;;8.60;6.70;;;;;;;-5.54;93.50;149964.31;4943488;28;20482;-83
2024/01/09 09:29:10;;;;;;;9.30;6.90;;;;;;;-5.48;92.73;149978.38;4963582;28;20815;-83
2024/01/09 09:31:37;;;;;;;9.67;6.27;;;;;;;-5.44;92.97;149989.84;4966670;28;20481;-83
2024/01/09 09:34:03;;;;;;;11.87;7.97;;;;;;;-5.39;92.23;150002.63;4950540;28;20440;-83
2024/01/09 09:36:30;;;;;;;8.90;6.77;;;;;;;-5.35;91.44;150012.84;4966216;28;20425;-83
2024/01/09 09:38:58;;;;;;;11.10;7.73;;;;;;;-5.32;92.74;150020.47;4969792;28;20572;-83
2024/01/09 09:41:25;;;;;;;6.13;4.90;;;;;;;-5.28;90.23;150030.72;4951235;28;20449;-83
2024/01/09 09:43:56;;;;;;;10.20;7.20;;;;;;;-5.25;91.67;150037.09;4968040;28;20437;-83
2024/01/09 09:46:25;;;;;;;12.37;7.40;;;;;;;-5.19;92.30;150053.66;4966946;28;20444;-83
2024/01/09 09:48:53;;;;;;;14.80;7.77;;;;;;;-5.16;91.20;150061.34;4967057;28;20967;-83
2024/01/09 09:51:21;;;;;;;12.57;8.47;;;;;;;-5.09;92.45;150077.97;4969108;28;20441;-83
2024/01/09 09:53:48;;;;;;;14.50;9.23;;;;;;;-5.03;92.04;150094.53;4961815;28;20536;-82
2024/01/09 09:56:16;;;;;;;9.80;7.47;;;;;;;-4.99;93.63;150103.50;4968473;28;20965;-82
2024/01/09 09:58:43;;;;;;;14.87;8.13;;;;;;;-4.90;90.48;150125.22;4941740;28;20557;-82
2024/01/09 10:01:11;;;;;;;12.03;7.80;;;;;;;-4.80;90.65;150150.78;4942955;28;20801;-83
2024/01/09 10:03:41;;;;;;;14.30;8.87;;;;;;;-4.81;91.13;150148.19;4961256;28;20440;-83
2024/01/09 10:06:09;;;;;;;14.90;8.27;;;;;;;-4.77;90.41;150158.44;4966785;28;20536;-82
2024/01/09 10:08:35;;;;;;;10.70;7.93;;;;;;;-4.71;90.03;150175.03;4952397;28;20477;-83
2024/01/09 10:11:03;;;;;;;9.57;6.60;;;;;;;-4.67;90.59;150183.97;4932560;28;20781;-84
2024/01/09 10:13:31;;;;;;;12.07;7.97;;;;;;;-4.63;88.93;150195.47;4936124;28;20579;-83
2024/01/09 10:16:03;;;;;;;13.00;7.80;;;;;;;-4.65;88.18;150189.09;4969307;28;20450;-83
2024/01/09 10:18:31;;;;;;;13.93;8.97;;;;;;;-4.63;89.21;150195.47;4967166;28;20954;-83
2024/01/09 10:20:59;;;;;;;12.60;7.50;;;;;;;-4.57;88.26;150210.81;4965147;28;20430;-83
2024/01/09 10:23:26;;;;;;;14.30;8.00;;;;;;;-4.53;86.86;150221.06;4965771;28;20920;-82
2024/01/09 10:25:55;;;;;;;11.30;8.23;;;;;;;-4.49;86.19;150229.97;4967710;28;20444;-83
2024/01/09 10:28:22;;;;;;;11.30;7.70;;;;;;;-4.48;85.92;150232.56;4968672;28;20484;-81
2024/01/09 10:31:08;;;;;;;11.97;7.60;;;;;;;-4.43;85.94;150246.63;4967015;28;20433;-81
2024/01/09 10:33:39;;;;;;;13.73;8.33;;;;;;;-4.40;85.55;150254.28;4951316;28;20522;-82
2024/01/09 10:36:06;;;;;;;11.77;7.23;;;;;;;-4.34;86.00;150268.31;4967162;28;20979;-81
2024/01/09 10:38:32;;;;;;;14.87;8.00;;;;;;;-4.37;86.47;150260.69;4968808;28;20473;-81
2024/01/09 10:41:01;;;;;;;12.80;7.10;;;;;;;-4.37;85.82;150260.69;4966201;28;20454;-82
2024/01/09 10:43:28;;;;;;;12.80;7.20;;;;;;;-4.27;85.26;150286.22;4949868;28;20454;-81
2024/01/09 10:45:56;;;;;;;11.40;7.53;;;;;;;-4.20;86.60;150302.81;4947997;28;21001;-81
2024/01/09 10:48:23;;;;;;;13.03;7.80;;;;;;;-4.24;88.01;150293.91;4947981;28;20479;-82
2024/01/09 10:50:51;;;;;;;10.70;7.50;;;;;;;-4.20;87.11;150304.09;4947155;28;20425;-82
2024/01/09 10:53:19;;;;;;;9.63;7.37;;;;;;;-4.12;85.91;150323.28;4946356;29;20426;-82
2024/01/09 10:55:46;;;;;;;11.63;7.73;;;;;;;-4.09;86.89;150330.94;4922982;29;20475;-82
2024/01/09 10:58:12;;;;;;;9.67;7.00;;;;;;;-4.08;85.32;150334.81;4947639;28;21001;-81
2024/01/09 11:00:40;;;;;;;8.90;7.80;;;;;;;-3.98;84.96;150360.38;4953507;28;20530;-82
2024/01/09 11:03:08;;;;;;;10.57;6.83;;;;;;;-3.99;84.35;150356.50;4926799;29;20810;-82
2024/01/09 11:05:35;;;;;;;11.57;6.83;;;;;;;-3.96;84.62;150365.47;4950560;29;20461;-81
2024/01/09 11:08:11;;;;;;;9.40;6.60;;;;;;;-3.93;83.49;150373.16;4940088;29;20473;-82
2024/01/09 11:10:40;;;;;;;9.90;6.60;;;;;;;-3.91;83.22;150376.97;4958678;29;21030;-81
2024/01/09 11:13:08;;;;;;;12.90;8.10;;;;;;;-3.90;82.75;150380.84;4957262;28;20457;-81
2024/01/09 11:15:37;;;;;;;9.70;6.93;;;;;;;-3.92;83.59;150375.69;4935688;29;20471;-81